createdAt,value
2023-04-14T00:00:43.323Z,39.5
2023-04-14T00:02:43.368Z,39.6
2023-04-14T00:04:43.373Z,39.8
2023-04-14T00:06:43.368Z,40
2023-04-14T00:08:43.345Z,39.9
2023-04-14T00:10:43.323Z,39.8
2023-04-14T00:12:43.325Z,40.1
2023-04-14T00:14:43.340Z,40.2
2023-04-14T00:16:43.350Z,40.1
2023-04-14T00:18:43.333Z,40.8
2023-04-14T00:20:43.259Z,40.6
2023-04-14T00:22:43.275Z,41
2023-04-14T00:24:43.278Z,41.3
2023-04-14T00:26:43.339Z,41.6
2023-04-14T00:28:43.278Z,41.5
2023-04-14T00:30:43.364Z,41.9
2023-04-14T00:32:43.302Z,42.5
2023-04-14T00:34:43.293Z,43.4
2023-04-14T00:36:43.241Z,42.9
2023-04-14T00:38:43.278Z,42.8
2023-04-14T00:40:43.248Z,44.2
2023-04-14T00:42:43.235Z,43.7
2023-04-14T00:44:43.284Z,43.8
2023-04-14T00:46:43.462Z,44.7
2023-04-14T00:48:43.243Z,45.7
2023-04-14T00:50:43.264Z,45.3
2023-04-14T00:52:43.249Z,44.4
2023-04-14T00:54:43.233Z,44.4
2023-04-14T00:56:43.244Z,45.6
2023-04-14T00:58:43.287Z,44.8
2023-04-14T01:00:43.254Z,45
2023-04-14T01:02:43.471Z,45.1
2023-04-14T01:04:53.315Z,45.9
2023-04-14T01:06:43.268Z,46.1
2023-04-14T01:08:43.253Z,46.6
2023-04-14T01:10:43.268Z,46
2023-04-14T01:12:43.263Z,46.3
2023-04-14T01:14:43.227Z,46.7
2023-04-14T01:16:43.208Z,46.3
2023-04-14T01:18:43.242Z,46.5
2023-04-14T01:20:43.196Z,46.4
2023-04-14T01:22:43.253Z,47
2023-04-14T01:24:43.208Z,46.6
2023-04-14T01:26:43.279Z,47.2
2023-04-14T01:28:43.206Z,48
2023-04-14T01:30:43.219Z,47.1
2023-04-14T01:32:43.319Z,47.5
2023-04-14T01:34:43.191Z,47.5
2023-04-14T01:36:47.290Z,47.6
2023-04-14T01:38:45.720Z,47.6
2023-04-14T01:40:43.186Z,48.3
2023-04-14T01:42:43.207Z,47.7
2023-04-14T01:44:43.241Z,48.2
2023-04-14T01:46:43.234Z,48.6
2023-04-14T01:48:43.175Z,48.2
2023-04-14T01:50:43.177Z,48.6
2023-04-14T01:52:43.199Z,48.7
2023-04-14T01:54:43.157Z,49.6
2023-04-14T01:56:43.181Z,49.4
2023-04-14T01:58:43.205Z,49
2023-04-14T02:00:43.177Z,49.2
2023-04-14T02:02:43.335Z,50
2023-04-14T02:04:43.180Z,50.5
2023-04-14T02:06:43.148Z,49.9
2023-04-14T02:08:43.129Z,49.6
2023-04-14T02:10:43.196Z,49.3
2023-04-14T02:12:43.183Z,50.5
2023-04-14T02:14:43.150Z,50
2023-04-14T02:16:43.336Z,49.8
2023-04-14T02:18:43.143Z,51
2023-04-14T02:20:43.163Z,50.2
2023-04-14T02:22:43.187Z,50.3
2023-04-14T02:24:43.183Z,50.3
2023-04-14T02:26:43.165Z,51.2
2023-04-14T02:28:43.116Z,51.8
2023-04-14T02:30:43.238Z,51.4
2023-04-14T02:32:43.209Z,50.9
2023-04-14T02:34:43.106Z,50.6
2023-04-14T02:36:43.142Z,50.5
2023-04-14T02:38:44.389Z,50.9
2023-04-14T02:40:44.317Z,51.7
2023-04-14T02:42:43.117Z,52.4
2023-04-14T02:44:43.102Z,51.6
2023-04-14T02:46:43.125Z,52.4
2023-04-14T02:48:43.136Z,52.9
2023-04-14T02:50:43.139Z,52.1
2023-04-14T02:52:43.099Z,52.4
2023-04-14T02:54:43.161Z,54.6
2023-04-14T02:56:43.170Z,54.1
2023-04-14T02:58:43.143Z,53.5
2023-04-14T03:00:43.141Z,53.3
2023-04-14T03:02:43.264Z,54.2
2023-04-14T03:04:43.133Z,53.6
2023-04-14T03:06:43.127Z,55.7
2023-04-14T03:08:43.259Z,54.2
2023-04-14T03:10:43.100Z,55.7
2023-04-14T03:12:43.146Z,57.3
2023-04-14T03:14:43.121Z,55.3
2023-04-14T03:16:43.144Z,55.7
2023-04-14T03:18:44.248Z,54.8
2023-04-14T03:20:43.074Z,55.9
2023-04-14T03:22:43.113Z,55.8
2023-04-14T03:24:43.091Z,56
2023-04-14T03:26:43.078Z,55.4
2023-04-14T03:28:43.066Z,55.9
2023-04-14T03:30:43.110Z,56.5
2023-04-14T03:32:43.190Z,57.4
2023-04-14T03:34:43.058Z,55.6
2023-04-14T03:36:43.100Z,56.7
2023-04-14T03:38:43.097Z,56.7
2023-04-14T03:40:43.102Z,56.6
2023-04-14T03:42:43.147Z,55.9
2023-04-14T03:44:43.073Z,58.6
2023-04-14T03:46:43.091Z,58.1
2023-04-14T03:48:43.083Z,56.4
2023-04-14T03:50:43.066Z,59.2
2023-04-14T03:52:43.085Z,57.7
2023-04-14T03:54:43.771Z,57.5
2023-04-14T03:56:43.031Z,59.7
2023-04-14T03:58:43.033Z,58.8
2023-04-14T04:00:43.157Z,57.9
2023-04-14T04:02:43.223Z,59.8
2023-04-14T04:04:43.097Z,57.9
2023-04-14T04:06:43.025Z,59.6
2023-04-14T04:08:43.050Z,58
2023-04-14T04:10:44.577Z,57.6
2023-04-14T04:12:43.122Z,57.6
2023-04-14T04:14:43.167Z,57.9
2023-04-14T04:16:43.118Z,59.8
2023-04-14T04:18:43.019Z,59.1
2023-04-14T04:20:43.025Z,58.6
2023-04-14T04:22:43.122Z,59.4
2023-04-14T04:24:43.088Z,59.1
2023-04-14T04:26:43.032Z,60
2023-04-14T04:28:43.013Z,61
2023-04-14T04:30:43.022Z,60.5
2023-04-14T04:32:43.052Z,59.6
2023-04-14T04:34:43.002Z,59.3
2023-04-14T04:36:42.991Z,59.6
2023-04-14T04:38:43.126Z,60.5
2023-04-14T04:40:43.024Z,59.7
2023-04-14T04:42:43.028Z,60.7
2023-04-14T04:44:43.062Z,60
2023-04-14T04:46:43.030Z,59.6
2023-04-14T04:48:43.053Z,61.4
2023-04-14T04:50:43.062Z,60.6
2023-04-14T04:52:43.097Z,59.9
2023-04-14T04:54:43.003Z,60.4
2023-04-14T04:56:43.080Z,59.8
2023-04-14T04:58:42.977Z,60
2023-04-14T05:00:43.135Z,60.6
2023-04-14T05:02:43.292Z,61
2023-04-14T05:04:43.277Z,60.3
2023-04-14T05:06:43.210Z,60.9
2023-04-14T05:08:43.377Z,62
2023-04-14T05:10:43.294Z,61.5
2023-04-14T05:12:43.271Z,61.3
2023-04-14T05:14:42.968Z,62.5
2023-04-14T05:16:43.172Z,62.1
2023-04-14T05:18:43.170Z,60.6
2023-04-14T05:20:43.149Z,62.5
2023-04-14T05:22:43.188Z,61.7
2023-04-14T05:24:43.135Z,61.7
2023-04-14T05:26:54.740Z,61.6
2023-04-14T05:28:43.294Z,62.6
2023-04-14T05:30:43.205Z,62.5
2023-04-14T05:32:43.236Z,62.8
2023-04-14T05:34:42.992Z,62.1
2023-04-14T05:36:42.955Z,62.7
2023-04-14T05:38:43.034Z,63.5
2023-04-14T05:40:43.207Z,62.4
2023-04-14T05:42:43.117Z,62.5
2023-04-14T05:44:42.943Z,62.3
2023-04-14T05:46:42.986Z,61.9
2023-04-14T05:48:43.120Z,64
2023-04-14T05:50:43.250Z,63
2023-04-14T05:52:43.123Z,63.5
2023-04-14T05:54:43.382Z,62.6
2023-04-14T05:56:43.205Z,63.1
2023-04-14T05:58:43.162Z,63
2023-04-14T06:00:43.366Z,64.1
2023-04-14T06:02:43.395Z,64.5
2023-04-14T06:04:43.468Z,62.8
2023-04-14T06:06:43.160Z,64.5
2023-04-14T06:08:42.958Z,62.9
2023-04-14T06:10:43.079Z,64.8
2023-04-14T06:12:43.104Z,63.2
2023-04-14T06:14:43.239Z,63.2
2023-04-14T06:16:43.312Z,62.9
2023-04-14T06:18:43.261Z,64.5
2023-04-14T06:20:43.207Z,65.4
2023-04-14T06:22:43.181Z,63.5
2023-04-14T06:24:43.190Z,64.3
2023-04-14T06:26:43.182Z,65.2
2023-04-14T06:28:44.015Z,65
2023-04-14T06:30:43.244Z,66.7
2023-04-14T06:32:43.263Z,64.6
2023-04-14T06:34:43.252Z,65.9
2023-04-14T06:36:43.104Z,66
2023-04-14T06:38:43.207Z,65.5
2023-04-14T06:40:43.296Z,66.7
2023-04-14T06:42:43.181Z,65.5
2023-04-14T06:44:43.185Z,64.6
2023-04-14T06:46:43.231Z,65.2
2023-04-14T06:48:43.110Z,66.3
2023-04-14T06:50:44.360Z,65.4
2023-04-14T06:52:43.204Z,65.4
2023-04-14T06:54:43.193Z,65.2
2023-04-14T06:56:43.148Z,65.2
2023-04-14T06:58:43.251Z,65.6
2023-04-14T07:00:43.183Z,66.7
2023-04-14T07:02:43.244Z,65.5
2023-04-14T07:04:43.284Z,65
2023-04-14T07:06:43.163Z,65.5
2023-04-14T07:08:43.126Z,64.7
2023-04-14T07:10:43.156Z,64.7
2023-04-14T07:12:43.100Z,64.9
2023-04-14T07:14:43.170Z,65
2023-04-14T07:16:43.044Z,65
2023-04-14T07:18:43.067Z,65.6
2023-04-14T07:20:43.000Z,65
2023-04-14T07:22:43.165Z,65.2
2023-04-14T07:24:43.111Z,65.7
2023-04-14T07:26:43.044Z,66
2023-04-14T07:28:43.139Z,65.8
2023-04-14T07:30:43.165Z,65.6
2023-04-14T07:32:43.162Z,65.1
2023-04-14T07:34:43.113Z,65.2
2023-04-14T07:36:43.158Z,65
2023-04-14T07:38:43.167Z,65
2023-04-14T07:40:43.170Z,64.9
2023-04-14T07:42:43.112Z,65
2023-04-14T07:44:43.136Z,65.1
2023-04-14T07:46:43.158Z,65.1
2023-04-14T07:48:43.250Z,65.1
2023-04-14T07:50:43.126Z,65.1
2023-04-14T07:52:43.151Z,65
2023-04-14T07:54:43.087Z,65.3
2023-04-14T07:56:43.101Z,65.1
2023-04-14T07:58:43.062Z,65
2023-04-14T08:00:43.138Z,66.6
2023-04-14T08:02:43.040Z,65.4
2023-04-14T08:04:43.033Z,65.3
2023-04-14T08:06:42.930Z,65.3
2023-04-14T08:08:43.087Z,65.4
2023-04-14T08:10:43.045Z,65.5
2023-04-14T08:12:43.139Z,65.4
2023-04-14T08:14:43.114Z,65.7
2023-04-14T08:16:43.135Z,65.7
2023-04-14T08:18:43.059Z,65.6
2023-04-14T08:20:43.072Z,66.3
2023-04-14T08:22:43.072Z,66.4
2023-04-14T08:24:43.026Z,66.1
2023-04-14T08:26:42.996Z,66.6
2023-04-14T08:28:43.084Z,66.3
2023-04-14T08:30:43.078Z,67.2
2023-04-14T08:32:43.120Z,67.5
2023-04-14T08:35:36.561Z,66.5
2023-04-14T08:36:43.019Z,67
2023-04-14T08:38:43.062Z,66.5
2023-04-14T08:40:43.127Z,66.4
2023-04-14T08:42:42.965Z,66.5
2023-04-14T08:44:43.035Z,66.6
2023-04-14T08:46:43.098Z,66.8
2023-04-14T08:48:43.050Z,66.9
2023-04-14T08:50:43.051Z,68
2023-04-14T08:52:43.123Z,66.8
2023-04-14T08:54:43.144Z,66.7
2023-04-14T08:56:42.992Z,66.7
2023-04-14T08:58:43.120Z,68.1
2023-04-14T09:00:42.930Z,67.6
2023-04-14T09:02:43.326Z,68.2
2023-04-14T09:04:43.193Z,67
2023-04-14T09:06:42.992Z,68.2
2023-04-14T09:08:43.004Z,67.1
2023-04-14T09:10:42.984Z,67.1
2023-04-14T09:12:42.997Z,67.1
2023-04-14T09:14:43.073Z,67.2
2023-04-14T09:16:43.038Z,67.4
2023-04-14T09:18:43.018Z,67.6
2023-04-14T09:20:43.105Z,67.3
2023-04-14T09:22:43.000Z,67.3
2023-04-14T09:24:42.854Z,67.1
2023-04-14T09:26:42.848Z,67.5
2023-04-14T09:28:42.832Z,67.7
2023-04-14T09:30:42.818Z,67.7
2023-04-14T09:32:42.849Z,67.4
2023-04-14T09:34:42.985Z,67.2
2023-04-14T09:36:42.997Z,68.1
2023-04-14T09:38:43.010Z,67.7
2023-04-14T09:40:42.991Z,67.5
2023-04-14T09:42:42.980Z,67.6
2023-04-14T09:44:42.864Z,67.5
2023-04-14T09:46:42.901Z,67.7
2023-04-14T09:48:42.807Z,67.6
2023-04-14T09:50:42.932Z,67.5
2023-04-14T09:52:42.937Z,67.5
2023-04-14T09:54:42.934Z,67.7
2023-04-14T09:56:42.893Z,67.7
2023-04-14T09:58:42.924Z,68
2023-04-14T10:00:42.922Z,67.7
2023-04-14T10:02:43.049Z,67.6
2023-04-14T10:04:42.797Z,67.4
2023-04-14T10:06:43.038Z,67.9
2023-04-14T10:08:42.869Z,67.9
2023-04-14T10:10:42.923Z,67.9
2023-04-14T10:12:42.906Z,68
2023-04-14T10:14:42.903Z,67.6
2023-04-14T10:16:42.932Z,68
2023-04-14T10:18:42.779Z,67.9
2023-04-14T10:20:42.763Z,67.6
2023-04-14T10:22:42.804Z,68.4
2023-04-14T10:24:42.847Z,68.1
2023-04-14T10:26:42.722Z,68.2
2023-04-14T10:28:42.805Z,68.2
2023-04-14T10:30:42.822Z,67.6
2023-04-14T10:32:42.933Z,67.9
2023-04-14T10:34:42.912Z,67.7
2023-04-14T10:36:42.794Z,68.1
2023-04-14T10:38:42.738Z,68.2
2023-04-14T10:40:42.743Z,68.3
2023-04-14T10:42:42.741Z,68
2023-04-14T10:44:42.729Z,68.9
2023-04-14T10:46:42.774Z,68.3
2023-04-14T10:48:42.812Z,68.4
2023-04-14T10:50:42.752Z,68.2
2023-04-14T10:52:42.724Z,68.2
2023-04-14T10:54:42.706Z,68.2
2023-04-14T10:56:42.762Z,68.2
2023-04-14T10:58:42.611Z,68.1
2023-04-14T11:00:42.583Z,68.4
2023-04-14T11:02:42.697Z,67.9
2023-04-14T11:04:42.585Z,68
2023-04-14T11:06:42.551Z,68.1
2023-04-14T11:08:42.596Z,68.1
2023-04-14T11:10:42.599Z,68.1
2023-04-14T11:12:42.644Z,68.2
2023-04-14T11:14:42.594Z,68
2023-04-14T11:16:50.686Z,68.1
2023-04-14T11:18:44.884Z,68
2023-04-14T11:20:42.568Z,68
2023-04-14T11:22:42.579Z,68
2023-04-14T11:24:42.536Z,68
2023-04-14T11:26:42.614Z,68.1
2023-04-14T11:28:42.523Z,68.1
2023-04-14T11:30:42.544Z,68
2023-04-14T11:32:42.589Z,67.8
2023-04-14T11:34:42.510Z,67.9
2023-04-14T11:36:42.550Z,68
2023-04-14T11:38:42.518Z,67.8
2023-04-14T11:40:42.569Z,68
2023-04-14T11:42:42.517Z,67.9
2023-04-14T11:44:42.511Z,68
2023-04-14T11:46:42.572Z,67.8
2023-04-14T11:48:42.537Z,67.7
2023-04-14T11:50:42.497Z,67.6
2023-04-14T11:52:42.503Z,67.6
2023-04-14T11:54:42.565Z,67.5
2023-04-14T11:56:42.495Z,67.3
2023-04-14T11:58:42.520Z,67.4
2023-04-14T12:00:42.506Z,67.4
2023-04-14T12:02:42.598Z,67.4
2023-04-14T12:04:42.577Z,67.4
2023-04-14T12:06:42.507Z,67.4
2023-04-14T12:08:42.495Z,67.5
2023-04-14T12:10:42.523Z,67.1
2023-04-14T12:12:42.469Z,67.2
2023-04-14T12:14:42.500Z,67.3
2023-04-14T12:16:42.658Z,67.4
2023-04-14T12:18:42.489Z,67.7
2023-04-14T12:20:42.504Z,67.4
2023-04-14T12:22:42.485Z,67.3
2023-04-14T12:24:42.488Z,67.5
2023-04-14T12:26:42.478Z,67
2023-04-14T12:28:42.495Z,67.3
2023-04-14T12:30:42.490Z,67.2
2023-04-14T12:32:42.523Z,67.3
2023-04-14T12:34:42.489Z,67.2
2023-04-14T12:36:49.960Z,67.2
2023-04-14T12:38:42.484Z,67.2
2023-04-14T12:40:42.467Z,67.1
2023-04-14T12:42:42.453Z,66.8
2023-04-14T12:44:42.457Z,66.4
2023-04-14T12:46:42.461Z,66
2023-04-14T12:48:42.457Z,66.1
2023-04-14T12:50:42.475Z,65.9
2023-04-14T12:52:42.434Z,65.8
2023-04-14T12:54:42.457Z,65.6
2023-04-14T12:56:42.431Z,65.2
2023-04-14T12:58:42.498Z,64.9
2023-04-14T13:00:42.483Z,64
2023-04-14T13:02:44.061Z,63.2
2023-04-14T13:04:42.406Z,62.5
2023-04-14T13:06:42.435Z,61.8
2023-04-14T13:08:42.443Z,62.1
2023-04-14T13:10:42.392Z,61.7
2023-04-14T13:12:42.429Z,62
2023-04-14T13:14:42.498Z,62.4
2023-04-14T13:16:42.429Z,62.3
2023-04-14T13:18:42.381Z,62.6
2023-04-14T13:20:42.394Z,62.5
2023-04-14T13:22:42.506Z,62.5
2023-04-14T13:24:42.430Z,62.5
2023-04-14T13:26:42.431Z,62.1
2023-04-14T13:28:42.446Z,62.3
2023-04-14T13:30:42.467Z,62.3
2023-04-14T13:32:42.468Z,62.3
2023-04-14T13:34:42.462Z,62.5
2023-04-14T13:36:42.519Z,61.6
2023-04-14T13:38:42.417Z,61.9
2023-04-14T13:40:42.410Z,61.9
2023-04-14T13:42:42.481Z,61.5
2023-04-14T13:44:42.420Z,61.5
2023-04-14T13:46:42.449Z,61.3
2023-04-14T13:48:42.375Z,61.5
2023-04-14T13:50:42.355Z,61.6
2023-04-14T13:52:42.410Z,61.6
2023-04-14T13:54:42.421Z,61.6
2023-04-14T13:56:42.398Z,61.5
2023-04-14T13:58:42.408Z,61.6
2023-04-14T14:00:42.396Z,61.5
2023-04-14T14:02:42.442Z,61.4
2023-04-14T14:04:42.413Z,61.4
2023-04-14T14:06:42.361Z,61.1
2023-04-14T14:08:42.377Z,61
2023-04-14T14:10:42.335Z,61.2
2023-04-14T14:12:42.368Z,61.3
2023-04-14T14:14:42.384Z,61.4
2023-04-14T14:16:42.411Z,61.1
2023-04-14T14:18:42.352Z,61.2
2023-04-14T14:20:43.771Z,61.1
2023-04-14T14:22:42.327Z,61.3
2023-04-14T14:24:42.319Z,61.4
2023-04-14T14:26:42.317Z,61.4
2023-04-14T14:28:42.345Z,61.8
2023-04-14T14:30:42.367Z,62
2023-04-14T14:32:42.605Z,63
2023-04-14T14:34:42.309Z,62.8
2023-04-14T14:36:42.333Z,63.2
2023-04-14T14:38:42.318Z,64.6
2023-04-14T14:40:43.508Z,64.1
2023-04-14T14:42:42.319Z,65.1
2023-04-14T14:44:42.328Z,64.6
2023-04-14T14:46:42.319Z,65.3
2023-04-14T14:48:42.374Z,65.5
2023-04-14T14:50:42.297Z,65.5
2023-04-14T14:52:42.237Z,67
2023-04-14T14:54:42.272Z,66.5
2023-04-14T14:56:42.292Z,66.9
2023-04-14T14:58:42.242Z,67.3
2023-04-14T15:00:42.265Z,67.8
2023-04-14T15:02:42.354Z,67.2
2023-04-14T15:04:42.407Z,67.7
2023-04-14T15:06:42.271Z,68.1
2023-04-14T15:08:42.311Z,68.2
2023-04-14T15:10:42.288Z,67.7
2023-04-14T15:12:42.253Z,68.1
2023-04-14T15:14:42.284Z,68.4
2023-04-14T15:16:42.320Z,69.2
2023-04-14T15:18:42.297Z,71.2
2023-04-14T15:20:42.276Z,69
2023-04-14T15:22:42.287Z,69.5
2023-04-14T15:24:42.261Z,70.3
2023-04-14T15:26:42.272Z,70.4
2023-04-14T15:28:42.348Z,70
2023-04-14T15:30:42.319Z,70.4
2023-04-14T15:32:42.298Z,70.4
2023-04-14T15:34:42.254Z,70.5
2023-04-14T15:36:42.303Z,70.6
2023-04-14T15:38:42.330Z,71
2023-04-14T15:40:42.286Z,69.7
2023-04-14T15:42:42.308Z,70
2023-04-14T15:44:42.293Z,70.3
2023-04-14T15:46:42.327Z,71
2023-04-14T15:48:42.351Z,70.4
2023-04-14T15:50:44.244Z,70.7
2023-04-14T15:52:42.287Z,70.5
2023-04-14T15:54:42.337Z,69.8
2023-04-14T15:56:42.251Z,70.5
2023-04-14T15:58:42.261Z,71.2
2023-04-14T16:00:42.273Z,71.5
2023-04-14T16:02:42.397Z,70.7
2023-04-14T16:04:42.315Z,71.5
2023-04-14T16:06:42.271Z,71.1
2023-04-14T16:08:42.264Z,71.1
2023-04-14T16:10:42.308Z,71.9
2023-04-14T16:12:42.256Z,71.2
2023-04-14T16:14:42.230Z,71.3
2023-04-14T16:16:42.250Z,71.4
2023-04-14T16:18:42.258Z,71.7
2023-04-14T16:20:42.252Z,71.4
2023-04-14T16:22:42.351Z,72.3
2023-04-14T16:24:42.237Z,71.2
2023-04-14T16:26:42.200Z,72.5
2023-04-14T16:28:42.297Z,71.4
2023-04-14T16:30:42.202Z,71.8
2023-04-14T16:32:42.285Z,72.1
2023-04-14T16:34:42.221Z,73.1
2023-04-14T16:36:42.250Z,73
2023-04-14T16:38:42.209Z,72.3
2023-04-14T16:40:42.223Z,72.2
2023-04-14T16:42:42.210Z,72.7
2023-04-14T16:44:42.213Z,71.8
2023-04-14T16:46:42.261Z,72
2023-04-14T16:48:42.228Z,72
2023-04-14T16:50:42.207Z,71.7
2023-04-14T16:52:42.211Z,71.6
2023-04-14T16:54:42.206Z,71.5
2023-04-14T16:56:42.208Z,72.3
2023-04-14T16:58:42.207Z,71.9
2023-04-14T17:00:42.180Z,71.9
2023-04-14T17:02:42.331Z,72.2
2023-04-14T17:04:42.349Z,72.5
2023-04-14T17:06:42.181Z,73.6
2023-04-14T17:08:42.182Z,72.5
2023-04-14T17:10:42.168Z,72.9
2023-04-14T17:12:42.146Z,72.4
2023-04-14T17:14:42.118Z,72.1
2023-04-14T17:16:42.187Z,72.3
2023-04-14T17:18:42.153Z,72.3
2023-04-14T17:20:42.135Z,72.3
2023-04-14T17:22:42.165Z,72.1
2023-04-14T17:24:42.142Z,72
2023-04-14T17:26:42.132Z,72.2
2023-04-14T17:28:42.168Z,72
2023-04-14T17:30:42.128Z,72.4
2023-04-14T17:32:42.167Z,72.4
2023-04-14T17:34:42.137Z,72.7
2023-04-14T17:36:42.140Z,72.5
2023-04-14T17:38:42.121Z,72.1
2023-04-14T17:40:42.221Z,71.9
2023-04-14T17:42:42.175Z,71.9
2023-04-14T17:44:42.097Z,71.8
2023-04-14T17:46:42.120Z,71.4
2023-04-14T17:48:42.165Z,70.8
2023-04-14T17:50:42.113Z,70.8
2023-04-14T17:52:42.114Z,70.7
2023-04-14T17:54:42.111Z,70.4
2023-04-14T17:56:42.144Z,70.2
2023-04-14T17:58:42.088Z,70.3
2023-04-14T18:00:42.127Z,70.2
2023-04-14T18:02:42.159Z,70.4
2023-04-14T18:04:42.103Z,70.4
2023-04-14T18:06:42.122Z,69.9
2023-04-14T18:08:42.094Z,69.9
2023-04-14T18:10:43.032Z,69.8
2023-04-14T18:12:42.095Z,69.4
2023-04-14T18:14:42.080Z,69.5
2023-04-14T18:16:42.097Z,69.1
2023-04-14T18:18:42.108Z,69
2023-04-14T18:20:42.124Z,68.9
2023-04-14T18:22:42.068Z,68.9
2023-04-14T18:26:42.060Z,68.5
2023-04-14T18:28:42.087Z,68.4
2023-04-14T18:30:42.157Z,68.3
2023-04-14T18:32:42.176Z,68.1
2023-04-14T18:34:42.083Z,68.4
2023-04-14T18:36:42.054Z,68.1
2023-04-14T18:38:42.051Z,68.2
2023-04-14T18:40:42.093Z,68.3
2023-04-14T18:42:42.064Z,68.3
2023-04-14T18:44:42.051Z,68.2
2023-04-14T18:46:42.046Z,67.8
2023-04-14T18:48:42.063Z,67.4
2023-04-14T18:50:42.117Z,67.3
2023-04-14T18:52:42.048Z,66.9
2023-04-14T18:54:42.049Z,67.3
2023-04-14T18:56:42.003Z,67
2023-04-14T18:58:42.055Z,67
2023-04-14T19:00:42.079Z,67
2023-04-14T19:02:42.081Z,66.8
2023-04-14T19:04:42.139Z,66.6
2023-04-14T19:06:42.024Z,66.1
2023-04-14T19:08:42.069Z,66.2
2023-04-14T19:10:42.068Z,66.2
2023-04-14T19:12:42.020Z,65.8
2023-04-14T19:14:42.050Z,66.3
2023-04-14T19:16:42.034Z,65.8
2023-04-14T19:18:42.024Z,65.6
2023-04-14T19:20:42.147Z,65.2
2023-04-14T19:22:42.032Z,65.5
2023-04-14T19:24:42.000Z,64.5
2023-04-14T19:26:42.064Z,65
2023-04-14T19:28:41.988Z,64.9
2023-04-14T19:30:42.013Z,64
2023-04-14T19:32:42.075Z,64.8
2023-04-14T19:34:41.995Z,65
2023-04-14T19:36:42.031Z,64.9
2023-04-14T19:38:42.029Z,65.1
2023-04-14T19:40:42.064Z,65
2023-04-14T19:42:42.114Z,65.2
2023-04-14T19:44:41.968Z,65.3
2023-04-14T19:46:42.017Z,65.4
2023-04-14T19:48:42.035Z,64.7
2023-04-14T19:50:41.989Z,65
2023-04-14T19:52:42.002Z,65.1
2023-04-14T19:54:42.045Z,65.3
2023-04-14T19:56:42.008Z,65.1
2023-04-14T19:58:41.969Z,65.1
2023-04-14T20:00:42.011Z,65.1
2023-04-14T20:02:42.008Z,65.4
2023-04-14T20:04:41.994Z,65.4
2023-04-14T20:06:42.028Z,65.4
2023-04-14T20:08:41.966Z,65.2
2023-04-14T20:10:42.041Z,65.3
2023-04-14T20:12:42.020Z,64.7
2023-04-14T20:14:42.039Z,64.8
2023-04-14T20:16:41.991Z,64.9
2023-04-14T20:18:42.012Z,64.4
2023-04-14T20:20:41.956Z,64.6
2023-04-14T20:22:41.970Z,64.6
2023-04-14T20:24:41.983Z,64.5
2023-04-14T20:26:41.939Z,64.4
2023-04-14T20:28:41.964Z,64
2023-04-14T20:30:41.957Z,63.9
2023-04-14T20:32:41.959Z,63.9
2023-04-14T20:34:41.945Z,63.8
2023-04-14T20:36:41.946Z,64
2023-04-14T20:38:41.920Z,64
2023-04-14T20:40:41.948Z,64.2
2023-04-14T20:42:41.964Z,64.3
2023-04-14T20:44:41.930Z,64.5
2023-04-14T20:46:41.938Z,64.6
2023-04-14T20:48:41.926Z,64.6
2023-04-14T20:50:41.942Z,64.3
2023-04-14T20:52:41.967Z,64.5
2023-04-14T20:54:41.942Z,64.5
2023-04-14T20:56:41.901Z,64.7
2023-04-14T20:58:41.978Z,64.2
2023-04-14T21:00:41.953Z,64.6
2023-04-14T21:02:41.998Z,64.1
2023-04-14T21:04:41.937Z,64.2
2023-04-14T21:06:41.919Z,64.4
2023-04-14T21:08:41.931Z,63.9
2023-04-14T21:11:02.014Z,64
2023-04-14T21:12:48.405Z,64.2
2023-04-14T21:15:26.900Z,64.5
2023-04-14T21:16:41.999Z,63.4
2023-04-14T21:18:41.987Z,63.9
2023-04-14T21:20:41.899Z,64
2023-04-14T21:22:41.915Z,64.4
2023-04-14T21:24:41.919Z,64.2
2023-04-14T21:26:41.906Z,64.7
2023-04-14T21:28:41.907Z,64.4
2023-04-14T21:30:41.912Z,64.3
2023-04-14T21:32:41.931Z,63.9
2023-04-14T21:34:41.894Z,64.2
2023-04-14T21:36:42.061Z,63.9
2023-04-14T21:38:41.990Z,64.1
2023-04-14T21:40:41.895Z,64.2
2023-04-14T21:42:41.997Z,64.3
2023-04-14T21:44:41.867Z,64.3
2023-04-14T21:46:41.884Z,63.9
2023-04-14T21:48:42.062Z,63.4
2023-04-14T21:50:45.737Z,63.6
2023-04-14T21:52:41.912Z,64
2023-04-14T21:54:42.170Z,64.3
2023-04-14T21:56:41.982Z,64.5
2023-04-14T21:58:41.939Z,64.3
2023-04-14T22:00:41.994Z,64.6
2023-04-14T22:02:42.066Z,64.3
2023-04-14T22:04:42.102Z,64.6
2023-04-14T22:06:42.078Z,64.3
2023-04-14T22:08:42.018Z,64.2
2023-04-14T22:10:42.031Z,64.5
2023-04-14T22:12:42.021Z,64.4
2023-04-14T22:14:42.002Z,64.7
2023-04-14T22:16:41.988Z,64.2
2023-04-14T22:18:41.841Z,64.4
2023-04-14T22:20:43.845Z,65
2023-04-14T22:22:41.977Z,64.9
2023-04-14T22:24:41.951Z,65.1
2023-04-14T22:26:41.902Z,65.3
2023-04-14T22:28:41.854Z,65.5
2023-04-14T22:30:41.983Z,66
2023-04-14T22:32:41.991Z,66.1
2023-04-14T22:34:42.035Z,66.1
2023-04-14T22:36:41.973Z,66.1
2023-04-14T22:38:42.039Z,66
2023-04-14T22:40:42.027Z,66.2
2023-04-14T22:42:41.973Z,66.2
2023-04-14T22:44:41.915Z,66.3
2023-04-14T22:46:42.016Z,66.4
2023-04-14T22:48:41.858Z,66.5
2023-04-14T22:50:41.964Z,66.6
2023-04-14T22:52:41.952Z,66.8
2023-04-14T22:54:41.965Z,66.9
2023-04-14T22:56:42.814Z,67.6
2023-04-14T22:58:41.965Z,67.4
2023-04-14T23:00:41.898Z,67.6
2023-04-14T23:02:42.062Z,67.8
2023-04-14T23:04:41.989Z,67.8
2023-04-14T23:06:41.926Z,67.8
2023-04-14T23:08:41.984Z,68
2023-04-14T23:10:41.916Z,68.2
2023-04-14T23:12:41.966Z,68.3
2023-04-14T23:14:41.980Z,68.3
2023-04-14T23:16:41.921Z,68.4
2023-04-14T23:18:43.209Z,68.4
2023-04-14T23:20:41.925Z,68.4
2023-04-14T23:22:41.945Z,68.5
2023-04-14T23:24:41.935Z,68.7
2023-04-14T23:26:41.777Z,68.9
2023-04-14T23:28:41.857Z,69.1
2023-04-14T23:30:41.852Z,68.9
2023-04-14T23:32:41.826Z,69.3
2023-04-14T23:34:41.734Z,69.4
2023-04-14T23:36:41.831Z,69.3
2023-04-14T23:38:41.744Z,69.8
2023-04-14T23:40:41.729Z,70
2023-04-14T23:42:41.737Z,69.9
2023-04-14T23:44:41.790Z,70.1
2023-04-14T23:46:41.767Z,70.7
2023-04-14T23:48:41.752Z,70.2
2023-04-14T23:50:59.341Z,70.6
2023-04-14T23:52:41.764Z,70.6
2023-04-14T23:54:41.798Z,70.3
2023-04-14T23:56:41.798Z,70.4
2023-04-14T23:58:41.733Z,70.4
